Yuan Shun Hai — 3FZO2 — position and weather

sailwx.info

Track history (hours):
 
Tides and Currents Weather Stations Pressure Air Temp Water Temp Dewpoint Dewpoint Depression Visibility Wind Speed Wind Dir Waves Ship Positions

Yuan Shun Hai

Last reported at 2017-Dec-07 18:05 UTC. Time now 2018-Feb-19 15:39 UTC.
Position N 36°13' E 027°06'.
Warning: this ship's position is months out of date.

Length 190 m; draft 12.8 m.

Type: Cargo ship. MMSI: 353863000.

Date/timePositionNaut miles runAvg speedWind from/ knotsBaromVisibWave heightAir tempDewpointWater temp
2017-Dec-07 18:05N 36°13' E 027°06'111.8
2017-Dec-07 18:00N 36°14' E 027°06'1512.0
2017-Dec-07 16:47N 36°26' E 026°54'412.0
2017-Dec-07 16:26N 36°29' E 026°51'612.0
2017-Dec-07 15:58N 36°34' E 026°49'1012.2
2017-Dec-07 15:10N 36°43' E 026°45'212.2
2017-Dec-07 15:00N 36°45' E 026°44'612.0
2017-Dec-07 14:31N 36°51' E 026°41'712.0
2017-Dec-07 13:55N 36°57' E 026°38'611.8
2017-Dec-07 13:27N 37°03' E 026°35'511.9
2017-Dec-07 13:01N 37°06' E 026°31'611.6
2017-Dec-07 12:31N 37°11' E 026°26'611.7
2017-Dec-07 12:01N 37°14' E 026°20'611.7
2017-Dec-07 11:31N 37°17' E 026°14'611.9
2017-Dec-07 11:01N 37°20' E 026°07'612.0
2017-Dec-07 10:31N 37°24' E 026°01'611.6
2017-Dec-07 10:01N 37°27' E 025°55'612.1
2017-Dec-07 09:31N 37°32' E 025°51'612.7
2017-Dec-07 09:00N 37°38' E 025°48'612.9
2017-Dec-07 08:31N 37°44' E 025°46'812.5
2017-Dec-07 07:53N 37°52' E 025°44'912.3
2017-Dec-07 07:11N 38°01' E 025°43'312.8
2017-Dec-07 06:58N 38°03' E 025°43'  
2017-Dec-03 14:53N 46°24' E 031°06'0 0.0
2017-Dec-03 14:17N 46°24' E 031°06'0 0.0
2017-Dec-03 13:50N 46°24' E 031°06'0 0.0
2017-Dec-03 13:29N 46°24' E 031°06'0 0.1
2017-Dec-03 12:59N 46°24' E 031°06'0 0.0
2017-Dec-03 10:56N 46°24' E 031°06'0 0.0
2017-Dec-02 08:41N 46°24' E 031°06'0 0.0
2017-Dec-02 08:14N 46°24' E 031°06'0 0.0
2017-Dec-02 07:42N 46°24' E 031°06'0 0.0
2017-Dec-02 07:13N 46°24' E 031°06'0 0.0
2017-Dec-02 05:38N 46°24' E 031°06'0 0.0
2017-Dec-02 02:20N 46°24' E 031°06'0 0.0
2017-Dec-02 01:07N 46°24' E 031°06'0 0.0
2017-Dec-02 00:37N 46°24' E 031°06'0 0.0
2017-Dec-01 23:38N 46°24' E 031°06'0 0.0
2017-Nov-30 06:45N 46°24' E 031°06'0 0.0
2017-Nov-30 06:30N 46°24' E 031°06'1 0.2
2017-Nov-30 00:26N 46°24' E 031°04'3 6.6
2017-Nov-29 23:56N 46°21' E 031°01'511.6
2017-Nov-29 23:30N 46°17' E 030°58'4 7.3
2017-Nov-29 23:00N 46°15' E 030°53'510.4
2017-Nov-29 22:29N 46°17' E 030°46'4 7.4
2017-Nov-29 22:00N 46°19' E 030°42'2 3.7
2017-Nov-29 21:29N 46°20' E 030°39'0 0.2
2017-Nov-29 21:00N 46°20' E 030°39'0 0.0
2017-Nov-29 20:29N 46°20' E 030°39'0 0.0
2017-Nov-29 20:00N 46°20' E 030°39'0 0.0
2017-Nov-29 19:30N 46°20' E 030°39'0 0.0
2017-Nov-29 19:00N 46°20' E 030°39'0 0.0
2017-Nov-29 18:29N 46°20' E 030°39'0 0.0
2017-Nov-29 18:00N 46°20' E 030°39'0 0.0
2017-Nov-29 16:59N 46°20' E 030°39'0 0.0
2017-Nov-29 16:30N 46°20' E 030°39'0 0.0
2017-Nov-29 16:00N 46°20' E 030°39'0 0.0
2017-Nov-29 15:30N 46°20' E 030°39'0 0.0
2017-Nov-29 14:59N 46°20' E 030°39'0 0.0
2017-Nov-29 14:31N 46°20' E 030°39'0 0.0
2017-Nov-29 14:00N 46°20' E 030°39'0 0.0
2017-Nov-29 13:30N 46°20' E 030°39'0 0.0
2017-Nov-29 12:59N 46°20' E 030°39'0 0.0
2017-Nov-29 12:31N 46°20' E 030°39'0 0.0
2017-Nov-29 11:59N 46°20' E 030°39'0 0.0
2017-Nov-29 11:31N 46°20' E 030°39'0 0.0
2017-Nov-29 11:00N 46°20' E 030°39'0 0.0
2017-Nov-29 10:31N 46°20' E 030°39'0 0.0
2017-Nov-29 09:59N 46°20' E 030°39'0 0.0
2017-Nov-29 09:30N 46°20' E 030°39'0 0.0
2017-Nov-29 08:59N 46°20' E 030°39'0 0.0
2017-Nov-29 08:30N 46°20' E 030°39'0 0.0
2017-Nov-29 07:59N 46°20' E 030°39'0 0.0
2017-Nov-29 07:30N 46°20' E 030°39'0 0.0
2017-Nov-29 06:59N 46°20' E 030°39'0 0.0
2017-Nov-29 06:30N 46°20' E 030°39'0 0.0
2017-Nov-29 06:00N 46°20' E 030°39'0 0.0
2017-Nov-29 05:30N 46°20' E 030°39'0 0.0
2017-Nov-29 04:59N 46°20' E 030°39'0 0.0
2017-Nov-29 04:31N 46°20' E 030°39'0 0.0
2017-Nov-29 04:00N 46°20' E 030°39'0 0.0
2017-Nov-29 03:30N 46°20' E 030°39'0 0.0
2017-Nov-29 02:59N 46°20' E 030°39'0 0.0
2017-Nov-29 02:31N 46°20' E 030°39'0 0.0
2017-Nov-29 02:00N 46°20' E 030°39'0 0.0
2017-Nov-29 01:30N 46°20' E 030°39'0 0.0
2017-Nov-29 00:59N 46°20' E 030°39'0 0.1
2017-Nov-29 00:30N 46°20' E 030°39'0 0.1
2017-Nov-29 00:00N 46°20' E 030°39'0 0.0
2017-Nov-28 23:30N 46°20' E 030°39'0 0.0
2017-Nov-28 23:00N 46°20' E 030°39'0 0.0
2017-Nov-28 22:31N 46°20' E 030°39'0 0.0
2017-Nov-28 21:59N 46°20' E 030°39'0 0.0
2017-Nov-28 21:30N 46°20' E 030°39'0 0.0
2017-Nov-28 20:59N 46°20' E 030°39'0 0.0
2017-Nov-28 20:30N 46°20' E 030°39'0 0.0
2017-Nov-28 19:59N 46°20' E 030°39'0 0.0
2017-Nov-28 19:30N 46°20' E 030°39'0 0.0
2017-Nov-28 18:59N 46°20' E 030°39'0 0.0
2017-Nov-28 18:31N 46°20' E 030°39'0 0.0
2017-Nov-28 17:59N 46°20' E 030°39'0 0.0
2017-Nov-28 17:30N 46°20' E 030°39'0 0.0
2017-Nov-28 17:00N 46°20' E 030°39'0 0.0
2017-Nov-28 16:30N 46°20' E 030°39'0 0.0
2017-Nov-28 16:00N 46°20' E 030°39'0 0.0
2017-Nov-28 14:59N 46°20' E 030°39'0 0.0
2017-Nov-28 14:30N 46°20' E 030°39'0 0.0
2017-Nov-28 13:59N 46°20' E 030°39'0 0.0
2017-Nov-28 13:31N 46°20' E 030°39'0 0.0
2017-Nov-28 13:00N 46°20' E 030°39'0 0.0
2017-Nov-28 12:31N 46°20' E 030°39'0 0.0
2017-Nov-28 12:00N 46°20' E 030°39'0 0.0
2017-Nov-28 11:30N 46°20' E 030°39'0 0.0
2017-Nov-28 11:00N 46°20' E 030°39'0 0.0
2017-Nov-28 10:31N 46°20' E 030°39'0 0.0
2017-Nov-28 09:59N 46°20' E 030°39'0 0.0
2017-Nov-28 09:31N 46°20' E 030°39'0 0.0
2017-Nov-28 08:59N 46°20' E 030°39'0 0.0
2017-Nov-28 08:30N 46°20' E 030°39'0 0.0
2017-Nov-28 07:59N 46°20' E 030°39'0 0.0
2017-Nov-28 07:30N 46°20' E 030°39'0 0.0
2017-Nov-28 07:00N 46°20' E 030°39'0 0.0
2017-Nov-28 06:30N 46°20' E 030°39'0 0.0
2017-Nov-28 05:59N 46°20' E 030°39'0 0.0
2017-Nov-28 05:30N 46°20' E 030°39'0 0.0
2017-Nov-28 04:31N 46°20' E 030°39'0 0.0
2017-Nov-28 03:59N 46°20' E 030°39'0 0.0
2017-Nov-28 03:31N 46°20' E 030°39'0 0.0
2017-Nov-28 03:00N 46°20' E 030°39'0 0.0
2017-Nov-28 02:30N 46°20' E 030°39'0 0.0
2017-Nov-28 01:59N 46°20' E 030°39'0 0.0
2017-Nov-28 01:30N 46°20' E 030°39'0 0.0
2017-Nov-28 00:59N 46°20' E 030°39'0 0.0
2017-Nov-28 00:31N 46°20' E 030°39'0 0.1
2017-Nov-27 23:59N 46°20' E 030°39'0 0.0
2017-Nov-27 22:59N 46°20' E 030°39'0 0.0
2017-Nov-27 22:30N 46°20' E 030°39'0 0.0
2017-Nov-27 21:59N 46°20' E 030°39'0 0.0
2017-Nov-27 21:31N 46°20' E 030°39'0 0.0
2017-Nov-27 20:59N 46°20' E 030°39'0 0.0
2017-Nov-27 20:30N 46°20' E 030°39'0 0.0
2017-Nov-27 19:59N 46°20' E 030°39'0 0.0
2017-Nov-27 19:30N 46°20' E 030°39'0 0.0
2017-Nov-27 18:59N 46°20' E 030°39'0 0.0
2017-Nov-27 18:31N 46°20' E 030°39'  
Track history (hours):
 
Tides and Currents Weather Stations Pressure Air Temp Water Temp Dewpoint Dewpoint Depression Visibility Wind Speed Wind Dir Waves Ship Positions

Yuan Shun Hai

Last reported at 2017-Dec-07 18:05 UTC. Time now 2018-Feb-19 15:39 UTC.
Position N 36°13' E 027°06'.
Warning: this ship's position is months out of date.

Length 190 m; draft 12.8 m.

Type: Cargo ship. MMSI: 353863000.

Date/timePositionNaut miles runAvg speedWind from/ knotsBaromVisibWave heightAir tempDewpointWater temp
2017-Dec-07 18:05N 36°13' E 027°06'111.8
2017-Dec-07 18:00N 36°14' E 027°06'1512.0
2017-Dec-07 16:47N 36°26' E 026°54'412.0
2017-Dec-07 16:26N 36°29' E 026°51'612.0
2017-Dec-07 15:58N 36°34' E 026°49'1012.2
2017-Dec-07 15:10N 36°43' E 026°45'212.2
2017-Dec-07 15:00N 36°45' E 026°44'612.0
2017-Dec-07 14:31N 36°51' E 026°41'712.0
2017-Dec-07 13:55N 36°57' E 026°38'611.8
2017-Dec-07 13:27N 37°03' E 026°35'511.9
2017-Dec-07 13:01N 37°06' E 026°31'611.6
2017-Dec-07 12:31N 37°11' E 026°26'611.7
2017-Dec-07 12:01N 37°14' E 026°20'611.7
2017-Dec-07 11:31N 37°17' E 026°14'611.9
2017-Dec-07 11:01N 37°20' E 026°07'612.0
2017-Dec-07 10:31N 37°24' E 026°01'611.6
2017-Dec-07 10:01N 37°27' E 025°55'612.1
2017-Dec-07 09:31N 37°32' E 025°51'612.7
2017-Dec-07 09:00N 37°38' E 025°48'612.9
2017-Dec-07 08:31N 37°44' E 025°46'812.5
2017-Dec-07 07:53N 37°52' E 025°44'912.3
2017-Dec-07 07:11N 38°01' E 025°43'312.8
2017-Dec-07 06:58N 38°03' E 025°43'  
2017-Dec-03 14:53N 46°24' E 031°06'0 0.0
2017-Dec-03 14:17N 46°24' E 031°06'0 0.0
2017-Dec-03 13:50N 46°24' E 031°06'0 0.0
2017-Dec-03 13:29N 46°24' E 031°06'0 0.1
2017-Dec-03 12:59N 46°24' E 031°06'0 0.0
2017-Dec-03 10:56N 46°24' E 031°06'0 0.0
2017-Dec-02 08:41N 46°24' E 031°06'0 0.0
2017-Dec-02 08:14N 46°24' E 031°06'0 0.0
2017-Dec-02 07:42N 46°24' E 031°06'0 0.0
2017-Dec-02 07:13N 46°24' E 031°06'0 0.0
2017-Dec-02 05:38N 46°24' E 031°06'0 0.0
2017-Dec-02 02:20N 46°24' E 031°06'0 0.0
2017-Dec-02 01:07N 46°24' E 031°06'0 0.0
2017-Dec-02 00:37N 46°24' E 031°06'0 0.0
2017-Dec-01 23:38N 46°24' E 031°06'0 0.0
2017-Nov-30 06:45N 46°24' E 031°06'0 0.0
2017-Nov-30 06:30N 46°24' E 031°06'1 0.2
2017-Nov-30 00:26N 46°24' E 031°04'3 6.6
2017-Nov-29 23:56N 46°21' E 031°01'511.6
2017-Nov-29 23:30N 46°17' E 030°58'4 7.3
2017-Nov-29 23:00N 46°15' E 030°53'510.4
2017-Nov-29 22:29N 46°17' E 030°46'4 7.4
2017-Nov-29 22:00N 46°19' E 030°42'2 3.7
2017-Nov-29 21:29N 46°20' E 030°39'0 0.2
2017-Nov-29 21:00N 46°20' E 030°39'0 0.0
2017-Nov-29 20:29N 46°20' E 030°39'0 0.0
2017-Nov-29 20:00N 46°20' E 030°39'0 0.0
2017-Nov-29 19:30N 46°20' E 030°39'0 0.0
2017-Nov-29 19:00N 46°20' E 030°39'0 0.0
2017-Nov-29 18:29N 46°20' E 030°39'0 0.0
2017-Nov-29 18:00N 46°20' E 030°39'0 0.0
2017-Nov-29 16:59N 46°20' E 030°39'0 0.0
2017-Nov-29 16:30N 46°20' E 030°39'0 0.0
2017-Nov-29 16:00N 46°20' E 030°39'0 0.0
2017-Nov-29 15:30N 46°20' E 030°39'0 0.0
2017-Nov-29 14:59N 46°20' E 030°39'0 0.0
2017-Nov-29 14:31N 46°20' E 030°39'0 0.0
2017-Nov-29 14:00N 46°20' E 030°39'0 0.0
2017-Nov-29 13:30N 46°20' E 030°39'0 0.0
2017-Nov-29 12:59N 46°20' E 030°39'0 0.0
2017-Nov-29 12:31N 46°20' E 030°39'0 0.0
2017-Nov-29 11:59N 46°20' E 030°39'0 0.0
2017-Nov-29 11:31N 46°20' E 030°39'0 0.0
2017-Nov-29 11:00N 46°20' E 030°39'0 0.0
2017-Nov-29 10:31N 46°20' E 030°39'0 0.0
2017-Nov-29 09:59N 46°20' E 030°39'0 0.0
2017-Nov-29 09:30N 46°20' E 030°39'0 0.0
2017-Nov-29 08:59N 46°20' E 030°39'0 0.0
2017-Nov-29 08:30N 46°20' E 030°39'0 0.0
2017-Nov-29 07:59N 46°20' E 030°39'0 0.0
2017-Nov-29 07:30N 46°20' E 030°39'0 0.0
2017-Nov-29 06:59N 46°20' E 030°39'0 0.0
2017-Nov-29 06:30N 46°20' E 030°39'0 0.0
2017-Nov-29 06:00N 46°20' E 030°39'0 0.0
2017-Nov-29 05:30N 46°20' E 030°39'0 0.0
2017-Nov-29 04:59N 46°20' E 030°39'0 0.0
2017-Nov-29 04:31N 46°20' E 030°39'0 0.0
2017-Nov-29 04:00N 46°20' E 030°39'0 0.0
2017-Nov-29 03:30N 46°20' E 030°39'0 0.0
2017-Nov-29 02:59N 46°20' E 030°39'0 0.0
2017-Nov-29 02:31N 46°20' E 030°39'0 0.0
2017-Nov-29 02:00N 46°20' E 030°39'0 0.0
2017-Nov-29 01:30N 46°20' E 030°39'0 0.0
2017-Nov-29 00:59N 46°20' E 030°39'0 0.1
2017-Nov-29 00:30N 46°20' E 030°39'0 0.1
2017-Nov-29 00:00N 46°20' E 030°39'0 0.0
2017-Nov-28 23:30N 46°20' E 030°39'0 0.0
2017-Nov-28 23:00N 46°20' E 030°39'0 0.0
2017-Nov-28 22:31N 46°20' E 030°39'0 0.0
2017-Nov-28 21:59N 46°20' E 030°39'0 0.0
2017-Nov-28 21:30N 46°20' E 030°39'0 0.0
2017-Nov-28 20:59N 46°20' E 030°39'0 0.0
2017-Nov-28 20:30N 46°20' E 030°39'0 0.0
2017-Nov-28 19:59N 46°20' E 030°39'0 0.0
2017-Nov-28 19:30N 46°20' E 030°39'0 0.0
2017-Nov-28 18:59N 46°20' E 030°39'0 0.0
2017-Nov-28 18:31N 46°20' E 030°39'0 0.0
2017-Nov-28 17:59N 46°20' E 030°39'0 0.0
2017-Nov-28 17:30N 46°20' E 030°39'0 0.0
2017-Nov-28 17:00N 46°20' E 030°39'0 0.0
2017-Nov-28 16:30N 46°20' E 030°39'0 0.0
2017-Nov-28 16:00N 46°20' E 030°39'0 0.0
2017-Nov-28 14:59N 46°20' E 030°39'0 0.0
2017-Nov-28 14:30N 46°20' E 030°39'0 0.0
2017-Nov-28 13:59N 46°20' E 030°39'0 0.0
2017-Nov-28 13:31N 46°20' E 030°39'0 0.0
2017-Nov-28 13:00N 46°20' E 030°39'0 0.0
2017-Nov-28 12:31N 46°20' E 030°39'0 0.0
2017-Nov-28 12:00N 46°20' E 030°39'0 0.0
2017-Nov-28 11:30N 46°20' E 030°39'0 0.0
2017-Nov-28 11:00N 46°20' E 030°39'0 0.0
2017-Nov-28 10:31N 46°20' E 030°39'0 0.0
2017-Nov-28 09:59N 46°20' E 030°39'0 0.0
2017-Nov-28 09:31N 46°20' E 030°39'0 0.0
2017-Nov-28 08:59N 46°20' E 030°39'0 0.0
2017-Nov-28 08:30N 46°20' E 030°39'0 0.0
2017-Nov-28 07:59N 46°20' E 030°39'0 0.0
2017-Nov-28 07:30N 46°20' E 030°39'0 0.0
2017-Nov-28 07:00N 46°20' E 030°39'0 0.0
2017-Nov-28 06:30N 46°20' E 030°39'0 0.0
2017-Nov-28 05:59N 46°20' E 030°39'0 0.0
2017-Nov-28 05:30N 46°20' E 030°39'0 0.0
2017-Nov-28 04:31N 46°20' E 030°39'0 0.0
2017-Nov-28 03:59N 46°20' E 030°39'0 0.0
2017-Nov-28 03:31N 46°20' E 030°39'0 0.0
2017-Nov-28 03:00N 46°20' E 030°39'0 0.0
2017-Nov-28 02:30N 46°20' E 030°39'0 0.0
2017-Nov-28 01:59N 46°20' E 030°39'0 0.0
2017-Nov-28 01:30N 46°20' E 030°39'0 0.0
2017-Nov-28 00:59N 46°20' E 030°39'0 0.0
2017-Nov-28 00:31N 46°20' E 030°39'0 0.1
2017-Nov-27 23:59N 46°20' E 030°39'0 0.0
2017-Nov-27 22:59N 46°20' E 030°39'0 0.0
2017-Nov-27 22:30N 46°20' E 030°39'0 0.0
2017-Nov-27 21:59N 46°20' E 030°39'0 0.0
2017-Nov-27 21:31N 46°20' E 030°39'0 0.0
2017-Nov-27 20:59N 46°20' E 030°39'0 0.0
2017-Nov-27 20:30N 46°20' E 030°39'0 0.0
2017-Nov-27 19:59N 46°20' E 030°39'0 0.0
2017-Nov-27 19:30N 46°20' E 030°39'0 0.0
2017-Nov-27 18:59N 46°20' E 030°39'0 0.0
2017-Nov-27 18:31N 46°20' E 030°39'  

Dump ship's entire track history